sensor_id;sensor_type;location;lat;lon;timestamp;temperature;humidity
21271;DHT22;10795;50.796;3.860;2022-12-15T00:01:04;-4.10;99.90
21271;DHT22;10795;50.796;3.860;2022-12-15T00:03:48;-4.30;99.90
21271;DHT22;10795;50.796;3.860;2022-12-15T00:06:33;-4.20;99.90
21271;DHT22;10795;50.796;3.860;2022-12-15T00:09:17;-4.00;99.90
21271;DHT22;10795;50.796;3.860;2022-12-15T00:12:01;-3.20;99.90
21271;DHT22;10795;50.796;3.860;2022-12-15T00:14:46;-2.10;99.90
21271;DHT22;10795;50.796;3.860;2022-12-15T00:17:30;-2.90;99.90
21271;DHT22;10795;50.796;3.860;2022-12-15T00:20:15;-3.40;99.90
21271;DHT22;10795;50.796;3.860;2022-12-15T00:23:10;-3.80;99.90
21271;DHT22;10795;50.796;3.860;2022-12-15T00:25:57;-4.00;99.90
21271;DHT22;10795;50.796;3.860;2022-12-15T00:28:42;-4.20;99.90
21271;DHT22;10795;50.796;3.860;2022-12-15T00:31:26;-4.40;99.90
21271;DHT22;10795;50.796;3.860;2022-12-15T00:34:11;-4.50;99.90
21271;DHT22;10795;50.796;3.860;2022-12-15T00:36:55;-4.40;99.90
21271;DHT22;10795;50.796;3.860;2022-12-15T00:39:43;-4.40;99.90
21271;DHT22;10795;50.796;3.860;2022-12-15T00:42:09;-4.50;99.90
21271;DHT22;10795;50.796;3.860;2022-12-15T00:44:35;-4.40;99.90
21271;DHT22;10795;50.796;3.860;2022-12-15T00:47:05;-4.60;99.90
21271;DHT22;10795;50.796;3.860;2022-12-15T00:49:31;-4.50;99.90
21271;DHT22;10795;50.796;3.860;2022-12-15T00:52:19;-4.50;99.90
21271;DHT22;10795;50.796;3.860;2022-12-15T00:55:06;-4.30;99.90
21271;DHT22;10795;50.796;3.860;2022-12-15T00:57:52;-4.20;99.90
21271;DHT22;10795;50.796;3.860;2022-12-15T01:00:37;-4.30;99.90
21271;DHT22;10795;50.796;3.860;2022-12-15T01:03:23;-4.50;99.90
21271;DHT22;10795;50.796;3.860;2022-12-15T01:06:10;-4.50;99.90
21271;DHT22;10795;50.796;3.860;2022-12-15T01:08:57;-4.60;99.90
21271;DHT22;10795;50.796;3.860;2022-12-15T01:11:42;-4.60;99.90
21271;DHT22;10795;50.796;3.860;2022-12-15T01:14:28;-4.70;99.90
21271;DHT22;10795;50.796;3.860;2022-12-15T01:17:13;-4.90;99.90
21271;DHT22;10795;50.796;3.860;2022-12-15T01:20:01;-5.00;99.90
21271;DHT22;10795;50.796;3.860;2022-12-15T01:22:59;-4.90;99.90
21271;DHT22;10795;50.796;3.860;2022-12-15T01:25:25;-4.80;99.90
21271;DHT22;10795;50.796;3.860;2022-12-15T01:27:54;-4.80;99.90
21271;DHT22;10795;50.796;3.860;2022-12-15T01:30:22;-4.60;99.90
21271;DHT22;10795;50.796;3.860;2022-12-15T01:32:49;-4.60;99.90
21271;DHT22;10795;50.796;3.860;2022-12-15T01:35:16;-4.60;99.90
21271;DHT22;10795;50.796;3.860;2022-12-15T01:37:42;-4.50;99.90
21271;DHT22;10795;50.796;3.860;2022-12-15T01:40:13;-4.50;99.90
21271;DHT22;10795;50.796;3.860;2022-12-15T01:42:59;-4.50;99.90
21271;DHT22;10795;50.796;3.860;2022-12-15T01:48:03;-4.60;99.90
21271;DHT22;10795;50.796;3.860;2022-12-15T01:50:32;-4.60;99.90
21271;DHT22;10795;50.796;3.860;2022-12-15T01:52:59;-4.60;99.90
21271;DHT22;10795;50.796;3.860;2022-12-15T01:55:27;-4.70;99.90
21271;DHT22;10795;50.796;3.860;2022-12-15T01:57:56;-4.10;99.90
21271;DHT22;10795;50.796;3.860;2022-12-15T02:00:24;-3.30;99.90
21271;DHT22;10795;50.796;3.860;2022-12-15T02:02:50;-3.10;99.90
21271;DHT22;10795;50.796;3.860;2022-12-15T02:05:19;-3.30;99.90
21271;DHT22;10795;50.796;3.860;2022-12-15T02:07:48;-3.70;99.90
21271;DHT22;10795;50.796;3.860;2022-12-15T02:10:14;-3.80;99.90
21271;DHT22;10795;50.796;3.860;2022-12-15T02:13:05;-4.30;99.90
21271;DHT22;10795;50.796;3.860;2022-12-15T02:15:49;-4.50;99.90
21271;DHT22;10795;50.796;3.860;2022-12-15T02:18:24;-4.50;99.90
21271;DHT22;10795;50.796;3.860;2022-12-15T02:32:11;-3.90;99.90
21271;DHT22;10795;50.796;3.860;2022-12-15T02:37:16;-4.80;99.90
21271;DHT22;10795;50.796;3.860;2022-12-15T02:39:44;-4.90;99.90
21271;DHT22;10795;50.796;3.860;2022-12-15T02:42:10;-4.90;99.90
21271;DHT22;10795;50.796;3.860;2022-12-15T02:44:46;-4.80;99.90
21271;DHT22;10795;50.796;3.860;2022-12-15T02:50:28;-4.50;99.90
21271;DHT22;10795;50.796;3.860;2022-12-15T02:58:57;-4.90;99.90
21271;DHT22;10795;50.796;3.860;2022-12-15T03:01:48;-4.90;99.90
21271;DHT22;10795;50.796;3.860;2022-12-15T03:04:16;-4.80;99.90
21271;DHT22;10795;50.796;3.860;2022-12-15T03:06:42;-4.70;99.90
21271;DHT22;10795;50.796;3.860;2022-12-15T03:09:08;-4.80;99.90
21271;DHT22;10795;50.796;3.860;2022-12-15T03:11:37;-4.80;99.90
21271;DHT22;10795;50.796;3.860;2022-12-15T03:14:03;-4.70;99.90
21271;DHT22;10795;50.796;3.860;2022-12-15T03:16:32;-4.90;99.90
21271;DHT22;10795;50.796;3.860;2022-12-15T03:18:58;-4.70;99.90
21271;DHT22;10795;50.796;3.860;2022-12-15T03:21:24;-4.70;99.90
21271;DHT22;10795;50.796;3.860;2022-12-15T03:23:50;-4.80;99.90
21271;DHT22;10795;50.796;3.860;2022-12-15T03:26:16;-4.80;99.90
21271;DHT22;10795;50.796;3.860;2022-12-15T03:28:44;-4.90;99.90
21271;DHT22;10795;50.796;3.860;2022-12-15T03:31:10;-5.00;99.90
21271;DHT22;10795;50.796;3.860;2022-12-15T03:33:36;-5.00;99.90
21271;DHT22;10795;50.796;3.860;2022-12-15T03:36:02;-5.00;99.90
21271;DHT22;10795;50.796;3.860;2022-12-15T03:38:28;-4.90;99.90
21271;DHT22;10795;50.796;3.860;2022-12-15T03:40:57;-4.80;99.90
21271;DHT22;10795;50.796;3.860;2022-12-15T03:43:23;-4.80;99.90
21271;DHT22;10795;50.796;3.860;2022-12-15T03:45:48;-4.80;99.90
21271;DHT22;10795;50.796;3.860;2022-12-15T03:48:14;-4.70;99.90
21271;DHT22;10795;50.796;3.860;2022-12-15T03:50:40;-4.90;99.90
21271;DHT22;10795;50.796;3.860;2022-12-15T03:53:06;-5.10;99.90
21271;DHT22;10795;50.796;3.860;2022-12-15T03:55:32;-5.00;99.90
21271;DHT22;10795;50.796;3.860;2022-12-15T03:57:59;-5.00;99.90
21271;DHT22;10795;50.796;3.860;2022-12-15T04:00:28;-5.00;99.90
21271;DHT22;10795;50.796;3.860;2022-12-15T04:02:56;-5.00;99.90
21271;DHT22;10795;50.796;3.860;2022-12-15T04:05:27;-4.90;99.90
21271;DHT22;10795;50.796;3.860;2022-12-15T04:07:54;-5.00;99.90
21271;DHT22;10795;50.796;3.860;2022-12-15T04:10:22;-5.00;99.90
21271;DHT22;10795;50.796;3.860;2022-12-15T04:12:48;-5.10;99.90
21271;DHT22;10795;50.796;3.860;2022-12-15T04:15:14;-5.00;99.90
21271;DHT22;10795;50.796;3.860;2022-12-15T04:17:40;-5.00;99.90
21271;DHT22;10795;50.796;3.860;2022-12-15T04:20:07;-5.00;99.90
21271;DHT22;10795;50.796;3.860;2022-12-15T04:22:41;-5.00;99.90
21271;DHT22;10795;50.796;3.860;2022-12-15T04:25:10;-5.10;99.90
21271;DHT22;10795;50.796;3.860;2022-12-15T04:27:55;-5.30;99.90
21271;DHT22;10795;50.796;3.860;2022-12-15T04:30:43;-5.30;99.90
21271;DHT22;10795;50.796;3.860;2022-12-15T04:33:28;-5.20;99.90
21271;DHT22;10795;50.796;3.860;2022-12-15T04:36:13;-5.20;99.90
21271;DHT22;10795;50.796;3.860;2022-12-15T04:38:58;-5.30;99.90
21271;DHT22;10795;50.796;3.860;2022-12-15T04:41:43;-5.30;99.90
21271;DHT22;10795;50.796;3.860;2022-12-15T04:44:28;-5.30;99.90
21271;DHT22;10795;50.796;3.860;2022-12-15T04:47:13;-5.50;99.90
21271;DHT22;10795;50.796;3.860;2022-12-15T04:49:57;-5.40;99.90
21271;DHT22;10795;50.796;3.860;2022-12-15T04:52:41;-5.30;99.90
21271;DHT22;10795;50.796;3.860;2022-12-15T04:55:26;-5.40;99.90
21271;DHT22;10795;50.796;3.860;2022-12-15T04:58:10;-5.60;99.90
21271;DHT22;10795;50.796;3.860;2022-12-15T05:00:56;-5.40;99.90
21271;DHT22;10795;50.796;3.860;2022-12-15T05:03:42;-5.30;99.90
21271;DHT22;10795;50.796;3.860;2022-12-15T05:06:27;-5.40;99.90
21271;DHT22;10795;50.796;3.860;2022-12-15T05:09:12;-5.50;99.90
21271;DHT22;10795;50.796;3.860;2022-12-15T05:11:56;-5.50;99.90
21271;DHT22;10795;50.796;3.860;2022-12-15T05:14:40;-5.50;99.90
21271;DHT22;10795;50.796;3.860;2022-12-15T05:17:25;-5.50;99.90
21271;DHT22;10795;50.796;3.860;2022-12-15T05:20:09;-5.40;99.90
21271;DHT22;10795;50.796;3.860;2022-12-15T05:22:54;-5.30;99.90
21271;DHT22;10795;50.796;3.860;2022-12-15T05:25:39;-5.50;99.90
21271;DHT22;10795;50.796;3.860;2022-12-15T05:28:23;-5.40;99.90
21271;DHT22;10795;50.796;3.860;2022-12-15T05:31:08;-5.20;99.90
21271;DHT22;10795;50.796;3.860;2022-12-15T05:33:53;-5.30;99.90
21271;DHT22;10795;50.796;3.860;2022-12-15T05:36:23;-5.30;99.90
21271;DHT22;10795;50.796;3.860;2022-12-15T05:38:52;-5.30;99.90
21271;DHT22;10795;50.796;3.860;2022-12-15T05:41:19;-5.30;99.90
21271;DHT22;10795;50.796;3.860;2022-12-15T05:43:46;-5.60;99.90
21271;DHT22;10795;50.796;3.860;2022-12-15T05:46:12;-5.70;99.90
21271;DHT22;10795;50.796;3.860;2022-12-15T05:48:39;-5.50;99.90
21271;DHT22;10795;50.796;3.860;2022-12-15T05:51:06;-5.50;99.90
21271;DHT22;10795;50.796;3.860;2022-12-15T05:53:33;-5.50;99.90
21271;DHT22;10795;50.796;3.860;2022-12-15T05:56:01;-5.30;99.90
21271;DHT22;10795;50.796;3.860;2022-12-15T05:58:27;-5.40;99.90
21271;DHT22;10795;50.796;3.860;2022-12-15T06:00:53;-5.30;99.90
21271;DHT22;10795;50.796;3.860;2022-12-15T06:03:19;-5.30;99.90
21271;DHT22;10795;50.796;3.860;2022-12-15T06:05:44;-5.40;99.90
21271;DHT22;10795;50.796;3.860;2022-12-15T06:08:12;-5.40;99.90
21271;DHT22;10795;50.796;3.860;2022-12-15T06:10:38;-5.40;99.90
21271;DHT22;10795;50.796;3.860;2022-12-15T06:13:04;-5.20;99.90
21271;DHT22;10795;50.796;3.860;2022-12-15T06:15:30;-5.20;99.90
21271;DHT22;10795;50.796;3.860;2022-12-15T06:17:58;-5.20;99.90
21271;DHT22;10795;50.796;3.860;2022-12-15T06:20:24;-5.20;99.90
21271;DHT22;10795;50.796;3.860;2022-12-15T06:22:49;-5.10;99.90
21271;DHT22;10795;50.796;3.860;2022-12-15T06:25:15;-5.20;99.90
21271;DHT22;10795;50.796;3.860;2022-12-15T06:27:42;-5.30;99.90
21271;DHT22;10795;50.796;3.860;2022-12-15T06:30:08;-5.30;99.90
21271;DHT22;10795;50.796;3.860;2022-12-15T06:32:34;-4.70;99.90
21271;DHT22;10795;50.796;3.860;2022-12-15T06:35:00;-4.90;99.90
21271;DHT22;10795;50.796;3.860;2022-12-15T06:37:28;-5.00;99.90
21271;DHT22;10795;50.796;3.860;2022-12-15T06:39:54;-5.20;99.90
21271;DHT22;10795;50.796;3.860;2022-12-15T06:42:20;-5.40;99.90
21271;DHT22;10795;50.796;3.860;2022-12-15T06:44:46;-4.80;99.90
21271;DHT22;10795;50.796;3.860;2022-12-15T06:47:12;-4.70;99.90
21271;DHT22;10795;50.796;3.860;2022-12-15T06:49:37;-4.90;99.90
21271;DHT22;10795;50.796;3.860;2022-12-15T06:52:03;-5.20;99.90
21271;DHT22;10795;50.796;3.860;2022-12-15T06:54:29;-5.50;99.90
21271;DHT22;10795;50.796;3.860;2022-12-15T06:56:55;-5.50;99.90
21271;DHT22;10795;50.796;3.860;2022-12-15T06:59:21;-5.70;99.90
21271;DHT22;10795;50.796;3.860;2022-12-15T07:01:46;-5.70;99.90
21271;DHT22;10795;50.796;3.860;2022-12-15T07:04:12;-5.60;99.90
21271;DHT22;10795;50.796;3.860;2022-12-15T07:06:39;-5.50;99.90
21271;DHT22;10795;50.796;3.860;2022-12-15T07:09:06;-5.60;99.90
21271;DHT22;10795;50.796;3.860;2022-12-15T07:11:32;-5.50;99.90
21271;DHT22;10795;50.796;3.860;2022-12-15T07:13:58;-5.40;99.90
21271;DHT22;10795;50.796;3.860;2022-12-15T07:16:24;-5.50;99.90
21271;DHT22;10795;50.796;3.860;2022-12-15T07:18:50;-5.60;99.90
21271;DHT22;10795;50.796;3.860;2022-12-15T07:21:16;-5.70;99.90
21271;DHT22;10795;50.796;3.860;2022-12-15T07:23:42;-5.60;99.90
21271;DHT22;10795;50.796;3.860;2022-12-15T07:26:09;-5.50;99.90
21271;DHT22;10795;50.796;3.860;2022-12-15T07:28:36;-4.80;99.90
21271;DHT22;10795;50.796;3.860;2022-12-15T07:31:03;-4.90;99.90
21271;DHT22;10795;50.796;3.860;2022-12-15T07:33:31;-5.20;99.90
21271;DHT22;10795;50.796;3.860;2022-12-15T07:35:58;-5.30;99.90
21271;DHT22;10795;50.796;3.860;2022-12-15T07:38:24;-5.50;99.90
21271;DHT22;10795;50.796;3.860;2022-12-15T07:40:50;-5.50;99.90
21271;DHT22;10795;50.796;3.860;2022-12-15T07:43:16;-5.50;99.90
21271;DHT22;10795;50.796;3.860;2022-12-15T07:45:42;-5.20;99.90
21271;DHT22;10795;50.796;3.860;2022-12-15T07:48:08;-5.10;99.90
21271;DHT22;10795;50.796;3.860;2022-12-15T07:50:38;-5.30;99.90
21271;DHT22;10795;50.796;3.860;2022-12-15T07:53:04;-5.20;99.90
21271;DHT22;10795;50.796;3.860;2022-12-15T07:55:30;-4.60;99.90
21271;DHT22;10795;50.796;3.860;2022-12-15T07:57:57;-5.10;99.90
21271;DHT22;10795;50.796;3.860;2022-12-15T08:00:22;-5.40;99.90
21271;DHT22;10795;50.796;3.860;2022-12-15T08:02:48;-4.80;99.90
21271;DHT22;10795;50.796;3.860;2022-12-15T08:05:14;-5.30;99.90
21271;DHT22;10795;50.796;3.860;2022-12-15T08:07:40;-5.40;99.90
21271;DHT22;10795;50.796;3.860;2022-12-15T08:10:06;-5.50;99.90
21271;DHT22;10795;50.796;3.860;2022-12-15T08:12:32;-5.60;99.90
21271;DHT22;10795;50.796;3.860;2022-12-15T08:14:57;-5.30;99.90
21271;DHT22;10795;50.796;3.860;2022-12-15T08:17:24;-5.30;99.90
21271;DHT22;10795;50.796;3.860;2022-12-15T08:19:49;-5.30;99.90
21271;DHT22;10795;50.796;3.860;2022-12-15T08:22:15;-5.40;99.90
21271;DHT22;10795;50.796;3.860;2022-12-15T08:24:41;-5.40;99.90
21271;DHT22;10795;50.796;3.860;2022-12-15T08:27:07;-5.30;99.90
21271;DHT22;10795;50.796;3.860;2022-12-15T08:29:33;-5.30;99.90
21271;DHT22;10795;50.796;3.860;2022-12-15T08:31:59;-5.20;99.90
21271;DHT22;10795;50.796;3.860;2022-12-15T08:34:26;-5.20;99.90
21271;DHT22;10795;50.796;3.860;2022-12-15T08:36:51;-4.80;99.90
21271;DHT22;10795;50.796;3.860;2022-12-15T08:39:17;-4.90;99.90
21271;DHT22;10795;50.796;3.860;2022-12-15T08:41:43;-5.00;99.90
21271;DHT22;10795;50.796;3.860;2022-12-15T08:44:09;-5.10;99.90
21271;DHT22;10795;50.796;3.860;2022-12-15T08:46:35;-5.00;99.90
21271;DHT22;10795;50.796;3.860;2022-12-15T08:49:02;-4.90;99.90
21271;DHT22;10795;50.796;3.860;2022-12-15T08:51:29;-4.90;99.90
21271;DHT22;10795;50.796;3.860;2022-12-15T08:53:57;-5.00;99.90
21271;DHT22;10795;50.796;3.860;2022-12-15T08:56:24;-4.90;99.90
21271;DHT22;10795;50.796;3.860;2022-12-15T08:58:56;-4.70;99.90
21271;DHT22;10795;50.796;3.860;2022-12-15T09:01:22;-5.00;99.90
21271;DHT22;10795;50.796;3.860;2022-12-15T09:03:50;-5.00;99.90
21271;DHT22;10795;50.796;3.860;2022-12-15T09:06:28;-4.90;99.90
21271;DHT22;10795;50.796;3.860;2022-12-15T09:08:55;-4.90;99.90
21271;DHT22;10795;50.796;3.860;2022-12-15T09:11:22;-4.70;99.90
21271;DHT22;10795;50.796;3.860;2022-12-15T09:13:49;-4.70;99.90
21271;DHT22;10795;50.796;3.860;2022-12-15T09:16:16;-4.50;99.90
21271;DHT22;10795;50.796;3.860;2022-12-15T09:18:44;-4.20;99.90
21271;DHT22;10795;50.796;3.860;2022-12-15T09:21:12;-4.00;99.90
21271;DHT22;10795;50.796;3.860;2022-12-15T09:23:38;-4.20;99.90
21271;DHT22;10795;50.796;3.860;2022-12-15T09:26:10;-4.20;99.90
21271;DHT22;10795;50.796;3.860;2022-12-15T09:28:37;-4.20;99.90
21271;DHT22;10795;50.796;3.860;2022-12-15T09:31:04;-4.20;99.90
21271;DHT22;10795;50.796;3.860;2022-12-15T09:33:30;-4.10;99.90
21271;DHT22;10795;50.796;3.860;2022-12-15T09:35:56;-4.00;99.90
21271;DHT22;10795;50.796;3.860;2022-12-15T09:38:22;-4.10;99.90
21271;DHT22;10795;50.796;3.860;2022-12-15T09:40:47;-4.00;99.90
21271;DHT22;10795;50.796;3.860;2022-12-15T09:43:20;-3.10;99.90
21271;DHT22;10795;50.796;3.860;2022-12-15T09:46:02;-2.80;99.90
21271;DHT22;10795;50.796;3.860;2022-12-15T09:48:37;-3.30;99.90
21271;DHT22;10795;50.796;3.860;2022-12-15T09:51:07;-3.60;99.90
21271;DHT22;10795;50.796;3.860;2022-12-15T09:53:35;-3.60;99.90
21271;DHT22;10795;50.796;3.860;2022-12-15T09:56:05;-3.50;99.90
21271;DHT22;10795;50.796;3.860;2022-12-15T10:04:27;-3.40;99.90
21271;DHT22;10795;50.796;3.860;2022-12-15T10:07:19;-3.40;99.90
21271;DHT22;10795;50.796;3.860;2022-12-15T10:09:47;-3.40;99.90
21271;DHT22;10795;50.796;3.860;2022-12-15T10:12:21;-3.40;99.90
21271;DHT22;10795;50.796;3.860;2022-12-15T10:15:09;-3.40;99.90
21271;DHT22;10795;50.796;3.860;2022-12-15T10:17:58;-3.40;99.90
21271;DHT22;10795;50.796;3.860;2022-12-15T10:20:27;-3.20;99.90
21271;DHT22;10795;50.796;3.860;2022-12-15T10:23:13;-3.30;99.90
21271;DHT22;10795;50.796;3.860;2022-12-15T10:25:45;-3.40;99.90
21271;DHT22;10795;50.796;3.860;2022-12-15T10:33:25;-3.20;99.90
21271;DHT22;10795;50.796;3.860;2022-12-15T10:35:53;-3.30;99.90
21271;DHT22;10795;50.796;3.860;2022-12-15T10:38:39;-3.10;99.90
21271;DHT22;10795;50.796;3.860;2022-12-15T10:41:09;-2.90;99.90
21271;DHT22;10795;50.796;3.860;2022-12-15T10:43:38;-2.80;99.90
21271;DHT22;10795;50.796;3.860;2022-12-15T10:48:35;-2.70;99.90
21271;DHT22;10795;50.796;3.860;2022-12-15T10:56:44;-2.20;99.90
21271;DHT22;10795;50.796;3.860;2022-12-15T11:07:32;-1.50;99.90
21271;DHT22;10795;50.796;3.860;2022-12-15T11:10:00;-1.20;99.90
21271;DHT22;10795;50.796;3.860;2022-12-15T11:12:29;-0.90;99.90
21271;DHT22;10795;50.796;3.860;2022-12-15T11:17:55;-1.10;99.90
21271;DHT22;10795;50.796;3.860;2022-12-15T11:20:31;-1.00;99.90
21271;DHT22;10795;50.796;3.860;2022-12-15T11:25:37;-0.80;99.90
21271;DHT22;10795;50.796;3.860;2022-12-15T11:28:13;-0.80;99.90
21271;DHT22;10795;50.796;3.860;2022-12-15T11:30:56;-1.00;99.90
21271;DHT22;10795;50.796;3.860;2022-12-15T11:33:24;-1.00;99.90
21271;DHT22;10795;50.796;3.860;2022-12-15T11:38:47;-1.00;99.90
21271;DHT22;10795;50.796;3.860;2022-12-15T11:44:27;-1.10;99.90
21271;DHT22;10795;50.796;3.860;2022-12-15T11:52:45;-1.00;99.90
21271;DHT22;10795;50.796;3.860;2022-12-15T12:04:15;-0.90;99.90
21271;DHT22;10795;50.796;3.860;2022-12-15T12:11:56;-0.10;99.90
21271;DHT22;10795;50.796;3.860;2022-12-15T12:20:38;0.60;99.90
21271;DHT22;10795;50.796;3.860;2022-12-15T12:23:27;0.30;99.90
21271;DHT22;10795;50.796;3.860;2022-12-15T12:37:43;2.00;99.90
21271;DHT22;10795;50.796;3.860;2022-12-15T12:43:01;2.30;99.90
21271;DHT22;10795;50.796;3.860;2022-12-15T12:48:37;3.20;99.90
21271;DHT22;10795;50.796;3.860;2022-12-15T12:51:28;3.30;99.90
21271;DHT22;10795;50.796;3.860;2022-12-15T12:53:56;3.10;99.90
21271;DHT22;10795;50.796;3.860;2022-12-15T12:56:40;3.10;99.90
21271;DHT22;10795;50.796;3.860;2022-12-15T12:59:33;3.40;99.90
21271;DHT22;10795;50.796;3.860;2022-12-15T13:04:40;3.20;99.90
21271;DHT22;10795;50.796;3.860;2022-12-15T13:07:30;2.70;99.90
21271;DHT22;10795;50.796;3.860;2022-12-15T13:12:47;2.30;99.90
21271;DHT22;10795;50.796;3.860;2022-12-15T13:18:20;3.40;99.90
21271;DHT22;10795;50.796;3.860;2022-12-15T13:20:49;3.40;99.90
21271;DHT22;10795;50.796;3.860;2022-12-15T13:31:19;3.20;99.90
21271;DHT22;10795;50.796;3.860;2022-12-15T13:36:54;3.10;99.90
21271;DHT22;10795;50.796;3.860;2022-12-15T13:44:43;3.80;99.90
21271;DHT22;10795;50.796;3.860;2022-12-15T13:47:19;4.10;99.90
21271;DHT22;10795;50.796;3.860;2022-12-15T13:50:16;4.20;99.90
21271;DHT22;10795;50.796;3.860;2022-12-15T13:52:51;4.40;99.90
21271;DHT22;10795;50.796;3.860;2022-12-15T13:55:36;4.40;99.90
21271;DHT22;10795;50.796;3.860;2022-12-15T13:58:16;4.50;99.90
21271;DHT22;10795;50.796;3.860;2022-12-15T14:00:56;4.50;99.90
21271;DHT22;10795;50.796;3.860;2022-12-15T14:03:22;4.50;99.90
21271;DHT22;10795;50.796;3.860;2022-12-15T14:05:58;4.30;99.90
21271;DHT22;10795;50.796;3.860;2022-12-15T14:08:26;4.40;99.90
21271;DHT22;10795;50.796;3.860;2022-12-15T14:10:55;4.50;99.90
21271;DHT22;10795;50.796;3.860;2022-12-15T14:13:29;4.60;99.90
21271;DHT22;10795;50.796;3.860;2022-12-15T14:16:14;4.70;99.90
21271;DHT22;10795;50.796;3.860;2022-12-15T14:18:42;4.50;99.90
21271;DHT22;10795;50.796;3.860;2022-12-15T14:21:22;4.40;99.90
21271;DHT22;10795;50.796;3.860;2022-12-15T14:23:48;4.60;99.90
21271;DHT22;10795;50.796;3.860;2022-12-15T14:26:15;4.40;99.90
21271;DHT22;10795;50.796;3.860;2022-12-15T14:28:43;4.50;99.90
21271;DHT22;10795;50.796;3.860;2022-12-15T14:31:20;4.70;99.90
21271;DHT22;10795;50.796;3.860;2022-12-15T14:33:50;4.40;99.90
21271;DHT22;10795;50.796;3.860;2022-12-15T14:36:18;4.40;99.90
21271;DHT22;10795;50.796;3.860;2022-12-15T14:38:59;4.50;99.90
21271;DHT22;10795;50.796;3.860;2022-12-15T14:41:27;4.60;99.90
21271;DHT22;10795;50.796;3.860;2022-12-15T14:44:05;4.40;99.90
21271;DHT22;10795;50.796;3.860;2022-12-15T14:46:32;4.40;99.90
21271;DHT22;10795;50.796;3.860;2022-12-15T14:49:05;4.00;99.90
21271;DHT22;10795;50.796;3.860;2022-12-15T14:51:42;3.80;99.90
21271;DHT22;10795;50.796;3.860;2022-12-15T14:57:12;3.80;99.90
21271;DHT22;10795;50.796;3.860;2022-12-15T14:59:42;3.10;99.90
21271;DHT22;10795;50.796;3.860;2022-12-15T15:04:40;3.20;99.90
21271;DHT22;10795;50.796;3.860;2022-12-15T15:07:16;3.40;99.90
21271;DHT22;10795;50.796;3.860;2022-12-15T15:09:44;3.50;99.90
21271;DHT22;10795;50.796;3.860;2022-12-15T15:12:21;3.20;99.90
21271;DHT22;10795;50.796;3.860;2022-12-15T15:14:58;3.60;99.90
21271;DHT22;10795;50.796;3.860;2022-12-15T15:17:37;3.20;99.90
21271;DHT22;10795;50.796;3.860;2022-12-15T15:20:17;2.60;99.90
21271;DHT22;10795;50.796;3.860;2022-12-15T15:28:22;2.60;99.90
21271;DHT22;10795;50.796;3.860;2022-12-15T15:33:22;2.00;99.90
21271;DHT22;10795;50.796;3.860;2022-12-15T15:35:54;2.00;99.90
21271;DHT22;10795;50.796;3.860;2022-12-15T15:38:30;1.90;99.90
21271;DHT22;10795;50.796;3.860;2022-12-15T15:40:58;2.20;99.90
21271;DHT22;10795;50.796;3.860;2022-12-15T15:43:26;3.00;99.90
21271;DHT22;10795;50.796;3.860;2022-12-15T15:46:00;3.40;99.90
21271;DHT22;10795;50.796;3.860;2022-12-15T15:48:35;3.40;99.90
21271;DHT22;10795;50.796;3.860;2022-12-15T15:51:03;3.10;99.90
21271;DHT22;10795;50.796;3.860;2022-12-15T15:53:32;2.40;99.90
21271;DHT22;10795;50.796;3.860;2022-12-15T15:55:59;2.60;99.90
21271;DHT22;10795;50.796;3.860;2022-12-15T15:58:25;2.40;99.90
21271;DHT22;10795;50.796;3.860;2022-12-15T16:00:51;1.90;99.90
21271;DHT22;10795;50.796;3.860;2022-12-15T16:03:18;1.50;99.90
21271;DHT22;10795;50.796;3.860;2022-12-15T16:05:44;1.30;99.90
21271;DHT22;10795;50.796;3.860;2022-12-15T16:08:15;1.00;99.90
21271;DHT22;10795;50.796;3.860;2022-12-15T16:10:43;1.00;99.90
21271;DHT22;10795;50.796;3.860;2022-12-15T16:13:10;1.40;99.90
21271;DHT22;10795;50.796;3.860;2022-12-15T16:15:36;2.40;99.90
21271;DHT22;10795;50.796;3.860;2022-12-15T16:18:02;2.90;99.90
21271;DHT22;10795;50.796;3.860;2022-12-15T16:20:29;3.00;99.90
21271;DHT22;10795;50.796;3.860;2022-12-15T16:23:21;2.50;99.90
21271;DHT22;10795;50.796;3.860;2022-12-15T16:25:51;2.60;99.90
21271;DHT22;10795;50.796;3.860;2022-12-15T16:28:20;2.80;99.90
21271;DHT22;10795;50.796;3.860;2022-12-15T16:30:46;2.90;99.90
21271;DHT22;10795;50.796;3.860;2022-12-15T16:33:12;2.10;99.90
21271;DHT22;10795;50.796;3.860;2022-12-15T16:35:40;1.50;99.90
21271;DHT22;10795;50.796;3.860;2022-12-15T16:38:13;0.90;99.90
21271;DHT22;10795;50.796;3.860;2022-12-15T16:40:40;0.70;99.90
21271;DHT22;10795;50.796;3.860;2022-12-15T16:43:25;0.40;99.90
21271;DHT22;10795;50.796;3.860;2022-12-15T16:45:52;0.70;99.90
21271;DHT22;10795;50.796;3.860;2022-12-15T16:48:19;1.30;99.90
21271;DHT22;10795;50.796;3.860;2022-12-15T16:50:49;2.20;99.90
21271;DHT22;10795;50.796;3.860;2022-12-15T16:53:26;2.10;99.90
21271;DHT22;10795;50.796;3.860;2022-12-15T16:55:58;1.10;99.90
21271;DHT22;10795;50.796;3.860;2022-12-15T16:58:25;0.30;99.90
21271;DHT22;10795;50.796;3.860;2022-12-15T17:00:51;0.50;99.90
21271;DHT22;10795;50.796;3.860;2022-12-15T17:03:20;0.30;99.90
21271;DHT22;10795;50.796;3.860;2022-12-15T17:05:56;-0.10;99.90
21271;DHT22;10795;50.796;3.860;2022-12-15T17:10:51;-0.70;99.90
21271;DHT22;10795;50.796;3.860;2022-12-15T17:15:49;-1.00;99.90
21271;DHT22;10795;50.796;3.860;2022-12-15T17:18:14;-1.20;99.90
21271;DHT22;10795;50.796;3.860;2022-12-15T17:20:41;-1.20;99.90
21271;DHT22;10795;50.796;3.860;2022-12-15T17:23:20;-1.20;99.90
21271;DHT22;10795;50.796;3.860;2022-12-15T17:25:47;-1.30;99.90
21271;DHT22;10795;50.796;3.860;2022-12-15T17:28:23;-1.60;99.90
21271;DHT22;10795;50.796;3.860;2022-12-15T17:30:49;-1.70;99.90
21271;DHT22;10795;50.796;3.860;2022-12-15T17:33:20;-1.70;99.90
21271;DHT22;10795;50.796;3.860;2022-12-15T17:35:49;-1.70;99.90
21271;DHT22;10795;50.796;3.860;2022-12-15T17:38:16;-1.70;99.90
21271;DHT22;10795;50.796;3.860;2022-12-15T17:40:44;-1.70;99.90
21271;DHT22;10795;50.796;3.860;2022-12-15T17:43:19;-1.80;99.90
21271;DHT22;10795;50.796;3.860;2022-12-15T17:45:45;-1.90;99.90
21271;DHT22;10795;50.796;3.860;2022-12-15T17:48:12;-1.80;99.90
21271;DHT22;10795;50.796;3.860;2022-12-15T17:50:38;-1.80;99.90
21271;DHT22;10795;50.796;3.860;2022-12-15T17:53:05;-1.90;99.90
21271;DHT22;10795;50.796;3.860;2022-12-15T17:55:32;-2.00;99.90
21271;DHT22;10795;50.796;3.860;2022-12-15T17:57:59;-2.10;99.90
21271;DHT22;10795;50.796;3.860;2022-12-15T18:00:27;-2.20;99.90
21271;DHT22;10795;50.796;3.860;2022-12-15T18:02:55;-2.20;99.90
21271;DHT22;10795;50.796;3.860;2022-12-15T18:05:23;-2.20;99.90
21271;DHT22;10795;50.796;3.860;2022-12-15T18:07:56;-2.10;99.90
21271;DHT22;10795;50.796;3.860;2022-12-15T18:10:26;-2.10;99.90
21271;DHT22;10795;50.796;3.860;2022-12-15T18:12:53;-2.10;99.90
21271;DHT22;10795;50.796;3.860;2022-12-15T18:15:22;-2.20;99.90
21271;DHT22;10795;50.796;3.860;2022-12-15T18:17:49;-2.20;99.90
21271;DHT22;10795;50.796;3.860;2022-12-15T18:20:15;-2.10;99.90
21271;DHT22;10795;50.796;3.860;2022-12-15T18:22:42;-2.00;99.90
21271;DHT22;10795;50.796;3.860;2022-12-15T18:25:23;-1.90;99.90
21271;DHT22;10795;50.796;3.860;2022-12-15T18:27:51;-2.10;99.90
21271;DHT22;10795;50.796;3.860;2022-12-15T18:30:23;-2.20;99.90
21271;DHT22;10795;50.796;3.860;2022-12-15T18:32:55;-1.90;99.90
21271;DHT22;10795;50.796;3.860;2022-12-15T18:35:32;-2.20;99.90